sensor_id;sensor_type;location;lat;lon;timestamp;P1;durP1;ratioP1;P2;durP2;ratioP2
43529;SDS011;55654;50.966;6.878;2023-05-07T00:01:57;39.88;;;22.92;;
43529;SDS011;55654;50.966;6.878;2023-05-07T00:04:23;45.83;;;24.88;;
43529;SDS011;55654;50.966;6.878;2023-05-07T00:06:49;49.47;;;24.98;;
43529;SDS011;55654;50.966;6.878;2023-05-07T00:09:16;50.97;;;26.50;;
43529;SDS011;55654;50.966;6.878;2023-05-07T00:11:42;53.92;;;26.83;;
43529;SDS011;55654;50.966;6.878;2023-05-07T00:14:08;46.35;;;25.08;;
43529;SDS011;55654;50.966;6.878;2023-05-07T00:16:34;46.50;;;23.88;;
43529;SDS011;55654;50.966;6.878;2023-05-07T00:19:00;39.83;;;23.33;;
43529;SDS011;55654;50.966;6.878;2023-05-07T00:21:26;46.03;;;22.08;;
43529;SDS011;55654;50.966;6.878;2023-05-07T00:23:52;35.67;;;21.02;;
43529;SDS011;55654;50.966;6.878;2023-05-07T00:26:18;45.45;;;23.27;;
43529;SDS011;55654;50.966;6.878;2023-05-07T00:28:45;38.50;;;22.42;;
43529;SDS011;55654;50.966;6.878;2023-05-07T00:31:11;42.53;;;23.92;;
43529;SDS011;55654;50.966;6.878;2023-05-07T00:33:37;49.90;;;24.17;;
43529;SDS011;55654;50.966;6.878;2023-05-07T00:36:04;58.97;;;26.70;;
43529;SDS011;55654;50.966;6.878;2023-05-07T00:38:47;53.28;;;28.27;;
43529;SDS011;55654;50.966;6.878;2023-05-07T00:41:13;51.58;;;25.60;;
43529;SDS011;55654;50.966;6.878;2023-05-07T00:43:39;43.33;;;24.63;;
43529;SDS011;55654;50.966;6.878;2023-05-07T00:46:05;45.60;;;24.33;;
43529;SDS011;55654;50.966;6.878;2023-05-07T00:48:32;44.75;;;25.48;;
43529;SDS011;55654;50.966;6.878;2023-05-07T00:50:58;58.95;;;26.27;;
43529;SDS011;55654;50.966;6.878;2023-05-07T00:53:24;50.97;;;26.42;;
43529;SDS011;55654;50.966;6.878;2023-05-07T00:55:51;51.10;;;25.75;;
43529;SDS011;55654;50.966;6.878;2023-05-07T00:58:17;38.87;;;21.30;;
43529;SDS011;55654;50.966;6.878;2023-05-07T01:00:43;30.25;;;17.70;;
43529;SDS011;55654;50.966;6.878;2023-05-07T01:03:10;36.60;;;20.63;;
43529;SDS011;55654;50.966;6.878;2023-05-07T01:05:36;36.25;;;19.10;;
43529;SDS011;55654;50.966;6.878;2023-05-07T01:08:02;47.20;;;23.52;;
43529;SDS011;55654;50.966;6.878;2023-05-07T01:10:28;42.45;;;21.52;;
43529;SDS011;55654;50.966;6.878;2023-05-07T01:12:58;44.38;;;23.63;;
43529;SDS011;55654;50.966;6.878;2023-05-07T01:15:27;32.25;;;18.55;;
43529;SDS011;55654;50.966;6.878;2023-05-07T01:17:56;30.77;;;18.48;;
43529;SDS011;55654;50.966;6.878;2023-05-07T01:20:22;25.95;;;16.80;;
43529;SDS011;55654;50.966;6.878;2023-05-07T01:22:48;34.42;;;19.77;;
43529;SDS011;55654;50.966;6.878;2023-05-07T01:25:17;35.40;;;18.88;;
43529;SDS011;55654;50.966;6.878;2023-05-07T01:27:43;25.25;;;15.80;;
43529;SDS011;55654;50.966;6.878;2023-05-07T01:30:10;28.58;;;15.10;;
43529;SDS011;55654;50.966;6.878;2023-05-07T01:35:22;27.83;;;14.98;;
43529;SDS011;55654;50.966;6.878;2023-05-07T01:37:48;27.08;;;13.68;;
43529;SDS011;55654;50.966;6.878;2023-05-07T01:40:18;20.98;;;13.02;;
43529;SDS011;55654;50.966;6.878;2023-05-07T01:42:44;21.60;;;12.05;;
43529;SDS011;55654;50.966;6.878;2023-05-07T01:45:11;15.45;;;10.75;;
43529;SDS011;55654;50.966;6.878;2023-05-07T01:47:37;21.85;;;12.32;;
43529;SDS011;55654;50.966;6.878;2023-05-07T01:50:07;17.92;;;11.60;;
43529;SDS011;55654;50.966;6.878;2023-05-07T01:52:33;27.02;;;14.38;;
43529;SDS011;55654;50.966;6.878;2023-05-07T01:55:00;22.98;;;12.25;;
43529;SDS011;55654;50.966;6.878;2023-05-07T01:57:26;21.15;;;12.60;;
43529;SDS011;55654;50.966;6.878;2023-05-07T01:59:52;21.80;;;11.27;;
43529;SDS011;55654;50.966;6.878;2023-05-07T02:02:18;20.02;;;11.73;;
43529;SDS011;55654;50.966;6.878;2023-05-07T02:04:44;21.08;;;11.30;;
43529;SDS011;55654;50.966;6.878;2023-05-07T02:07:10;23.02;;;12.52;;
43529;SDS011;55654;50.966;6.878;2023-05-07T02:09:36;19.77;;;10.90;;
43529;SDS011;55654;50.966;6.878;2023-05-07T02:12:04;22.00;;;11.40;;
43529;SDS011;55654;50.966;6.878;2023-05-07T02:14:30;20.38;;;10.68;;
43529;SDS011;55654;50.966;6.878;2023-05-07T02:16:56;18.33;;;11.33;;
43529;SDS011;55654;50.966;6.878;2023-05-07T02:19:25;22.17;;;11.73;;
43529;SDS011;55654;50.966;6.878;2023-05-07T02:21:51;22.90;;;11.50;;
43529;SDS011;55654;50.966;6.878;2023-05-07T02:24:18;22.50;;;13.88;;
43529;SDS011;55654;50.966;6.878;2023-05-07T02:26:47;28.70;;;14.13;;
43529;SDS011;55654;50.966;6.878;2023-05-07T02:29:13;23.03;;;13.40;;
43529;SDS011;55654;50.966;6.878;2023-05-07T02:31:39;27.57;;;15.03;;
43529;SDS011;55654;50.966;6.878;2023-05-07T02:34:05;22.20;;;14.07;;
43529;SDS011;55654;50.966;6.878;2023-05-07T02:36:31;23.53;;;13.93;;
43529;SDS011;55654;50.966;6.878;2023-05-07T02:38:57;25.53;;;14.77;;
43529;SDS011;55654;50.966;6.878;2023-05-07T02:41:25;25.70;;;15.07;;
43529;SDS011;55654;50.966;6.878;2023-05-07T02:43:53;25.13;;;14.70;;
43529;SDS011;55654;50.966;6.878;2023-05-07T02:46:19;30.33;;;15.67;;
43529;SDS011;55654;50.966;6.878;2023-05-07T02:48:45;28.10;;;15.80;;
43529;SDS011;55654;50.966;6.878;2023-05-07T02:51:11;39.60;;;18.70;;
43529;SDS011;55654;50.966;6.878;2023-05-07T02:53:37;26.70;;;16.13;;
43529;SDS011;55654;50.966;6.878;2023-05-07T02:56:03;24.80;;;15.47;;
43529;SDS011;55654;50.966;6.878;2023-05-07T02:58:30;29.63;;;17.07;;
43529;SDS011;55654;50.966;6.878;2023-05-07T03:00:56;39.60;;;18.70;;
43529;SDS011;55654;50.966;6.878;2023-05-07T03:03:22;29.00;;;17.57;;
43529;SDS011;55654;50.966;6.878;2023-05-07T03:05:51;34.57;;;17.33;;
43529;SDS011;55654;50.966;6.878;2023-05-07T03:08:17;23.50;;;15.40;;
43529;SDS011;55654;50.966;6.878;2023-05-07T03:10:45;29.47;;;16.53;;
43529;SDS011;55654;50.966;6.878;2023-05-07T03:13:11;30.77;;;16.00;;
43529;SDS011;55654;50.966;6.878;2023-05-07T03:15:38;24.47;;;15.27;;
43529;SDS011;55654;50.966;6.878;2023-05-07T03:18:06;33.63;;;17.97;;
43529;SDS011;55654;50.966;6.878;2023-05-07T03:20:32;27.13;;;15.90;;
43529;SDS011;55654;50.966;6.878;2023-05-07T03:22:58;30.27;;;16.07;;
43529;SDS011;55654;50.966;6.878;2023-05-07T03:25:24;29.67;;;18.17;;
43529;SDS011;55654;50.966;6.878;2023-05-07T03:27:51;36.17;;;18.23;;
43529;SDS011;55654;50.966;6.878;2023-05-07T03:30:17;31.90;;;15.50;;
43529;SDS011;55654;50.966;6.878;2023-05-07T03:32:43;29.43;;;16.10;;
43529;SDS011;55654;50.966;6.878;2023-05-07T03:35:09;24.03;;;15.87;;
43529;SDS011;55654;50.966;6.878;2023-05-07T03:37:35;28.73;;;16.33;;
43529;SDS011;55654;50.966;6.878;2023-05-07T03:40:01;24.70;;;15.80;;
43529;SDS011;55654;50.966;6.878;2023-05-07T03:42:28;26.67;;;15.47;;
43529;SDS011;55654;50.966;6.878;2023-05-07T03:44:54;31.87;;;16.67;;
43529;SDS011;55654;50.966;6.878;2023-05-07T03:47:20;27.97;;;16.53;;
43529;SDS011;55654;50.966;6.878;2023-05-07T03:49:46;30.37;;;16.77;;
43529;SDS011;55654;50.966;6.878;2023-05-07T03:52:14;30.37;;;17.83;;
43529;SDS011;55654;50.966;6.878;2023-05-07T03:54:42;31.90;;;18.50;;
43529;SDS011;55654;50.966;6.878;2023-05-07T03:57:08;29.57;;;17.30;;
43529;SDS011;55654;50.966;6.878;2023-05-07T03:59:34;36.50;;;18.47;;
43529;SDS011;55654;50.966;6.878;2023-05-07T04:02:00;33.57;;;20.23;;
43529;SDS011;55654;50.966;6.878;2023-05-07T04:04:29;33.60;;;17.90;;
43529;SDS011;55654;50.966;6.878;2023-05-07T04:06:57;39.33;;;18.63;;
43529;SDS011;55654;50.966;6.878;2023-05-07T04:09:26;32.03;;;18.10;;
43529;SDS011;55654;50.966;6.878;2023-05-07T04:11:52;37.57;;;18.47;;
43529;SDS011;55654;50.966;6.878;2023-05-07T04:14:18;33.57;;;18.10;;
43529;SDS011;55654;50.966;6.878;2023-05-07T04:16:46;31.23;;;17.43;;
43529;SDS011;55654;50.966;6.878;2023-05-07T04:19:12;30.77;;;17.40;;
43529;SDS011;55654;50.966;6.878;2023-05-07T04:21:38;27.23;;;14.97;;
43529;SDS011;55654;50.966;6.878;2023-05-07T04:24:05;31.43;;;16.37;;
43529;SDS011;55654;50.966;6.878;2023-05-07T04:26:31;27.03;;;15.63;;
43529;SDS011;55654;50.966;6.878;2023-05-07T04:28:57;22.00;;;14.03;;
43529;SDS011;55654;50.966;6.878;2023-05-07T04:31:24;25.80;;;14.73;;
43529;SDS011;55654;50.966;6.878;2023-05-07T04:33:50;26.43;;;14.33;;
43529;SDS011;55654;50.966;6.878;2023-05-07T04:36:16;20.60;;;13.03;;
43529;SDS011;55654;50.966;6.878;2023-05-07T04:38:42;19.37;;;11.80;;
43529;SDS011;55654;50.966;6.878;2023-05-07T04:41:08;19.43;;;12.47;;
43529;SDS011;55654;50.966;6.878;2023-05-07T04:43:35;23.53;;;13.77;;
43529;SDS011;55654;50.966;6.878;2023-05-07T04:46:01;22.40;;;13.07;;
43529;SDS011;55654;50.966;6.878;2023-05-07T04:48:27;22.97;;;12.17;;
43529;SDS011;55654;50.966;6.878;2023-05-07T04:50:53;19.20;;;12.13;;
43529;SDS011;55654;50.966;6.878;2023-05-07T04:53:27;25.70;;;13.90;;
43529;SDS011;55654;50.966;6.878;2023-05-07T04:55:56;20.27;;;11.90;;
43529;SDS011;55654;50.966;6.878;2023-05-07T04:58:23;19.93;;;12.37;;
43529;SDS011;55654;50.966;6.878;2023-05-07T05:00:49;18.00;;;11.33;;
43529;SDS011;55654;50.966;6.878;2023-05-07T05:03:15;17.90;;;10.33;;
43529;SDS011;55654;50.966;6.878;2023-05-07T05:05:41;14.70;;;10.10;;
43529;SDS011;55654;50.966;6.878;2023-05-07T05:08:07;17.95;;;10.75;;
43529;SDS011;55654;50.966;6.878;2023-05-07T05:10:33;33.50;;;11.55;;
43529;SDS011;55654;50.966;6.878;2023-05-07T05:12:59;19.80;;;11.47;;
43529;SDS011;55654;50.966;6.878;2023-05-07T05:15:25;25.33;;;13.15;;
43529;SDS011;55654;50.966;6.878;2023-05-07T05:17:51;23.90;;;13.67;;
43529;SDS011;55654;50.966;6.878;2023-05-07T05:20:17;20.57;;;11.03;;
43529;SDS011;55654;50.966;6.878;2023-05-07T05:22:43;17.88;;;10.32;;
43529;SDS011;55654;50.966;6.878;2023-05-07T05:25:09;22.67;;;16.35;;
43529;SDS011;55654;50.966;6.878;2023-05-07T05:27:38;17.55;;;10.88;;
43529;SDS011;55654;50.966;6.878;2023-05-07T05:30:05;20.93;;;11.77;;
43529;SDS011;55654;50.966;6.878;2023-05-07T05:32:34;16.48;;;10.27;;
43529;SDS011;55654;50.966;6.878;2023-05-07T05:35:03;14.75;;;10.13;;
43529;SDS011;55654;50.966;6.878;2023-05-07T05:37:29;15.32;;;9.88;;
43529;SDS011;55654;50.966;6.878;2023-05-07T05:39:59;11.32;;;8.05;;
43529;SDS011;55654;50.966;6.878;2023-05-07T05:42:25;13.02;;;7.88;;
43529;SDS011;55654;50.966;6.878;2023-05-07T05:44:51;13.93;;;7.28;;
43529;SDS011;55654;50.966;6.878;2023-05-07T05:47:17;12.88;;;7.72;;
43529;SDS011;55654;50.966;6.878;2023-05-07T05:49:43;11.88;;;7.65;;
43529;SDS011;55654;50.966;6.878;2023-05-07T05:52:12;13.57;;;6.78;;
43529;SDS011;55654;50.966;6.878;2023-05-07T05:54:39;7.43;;;5.40;;
43529;SDS011;55654;50.966;6.878;2023-05-07T05:57:05;7.43;;;5.30;;
43529;SDS011;55654;50.966;6.878;2023-05-07T05:59:31;13.10;;;6.15;;
43529;SDS011;55654;50.966;6.878;2023-05-07T06:01:57;8.95;;;6.53;;
43529;SDS011;55654;50.966;6.878;2023-05-07T06:04:23;9.32;;;5.55;;
43529;SDS011;55654;50.966;6.878;2023-05-07T06:06:49;10.48;;;5.88;;
43529;SDS011;55654;50.966;6.878;2023-05-07T06:09:15;9.05;;;5.93;;
43529;SDS011;55654;50.966;6.878;2023-05-07T06:11:41;9.98;;;4.95;;
43529;SDS011;55654;50.966;6.878;2023-05-07T06:14:07;9.50;;;4.28;;
43529;SDS011;55654;50.966;6.878;2023-05-07T06:16:33;10.93;;;5.32;;
43529;SDS011;55654;50.966;6.878;2023-05-07T06:18:59;7.07;;;4.70;;
43529;SDS011;55654;50.966;6.878;2023-05-07T06:21:25;7.45;;;4.45;;
43529;SDS011;55654;50.966;6.878;2023-05-07T06:23:51;11.65;;;6.30;;
43529;SDS011;55654;50.966;6.878;2023-05-07T06:26:17;8.90;;;4.97;;
43529;SDS011;55654;50.966;6.878;2023-05-07T06:28:43;6.53;;;4.50;;
43529;SDS011;55654;50.966;6.878;2023-05-07T06:31:13;7.00;;;6.07;;
43529;SDS011;55654;50.966;6.878;2023-05-07T06:33:39;6.90;;;3.78;;
43529;SDS011;55654;50.966;6.878;2023-05-07T06:36:06;9.07;;;4.25;;
43529;SDS011;55654;50.966;6.878;2023-05-07T06:38:32;8.70;;;5.15;;
43529;SDS011;55654;50.966;6.878;2023-05-07T06:40:58;9.43;;;5.20;;
43529;SDS011;55654;50.966;6.878;2023-05-07T06:43:24;7.55;;;4.40;;
43529;SDS011;55654;50.966;6.878;2023-05-07T06:45:50;3.90;;;2.60;;
43529;SDS011;55654;50.966;6.878;2023-05-07T06:48:16;6.22;;;4.15;;
43529;SDS011;55654;50.966;6.878;2023-05-07T06:50:42;5.45;;;3.78;;
43529;SDS011;55654;50.966;6.878;2023-05-07T06:53:08;4.68;;;2.30;;
43529;SDS011;55654;50.966;6.878;2023-05-07T06:55:34;6.00;;;2.45;;
43529;SDS011;55654;50.966;6.878;2023-05-07T06:58:00;6.65;;;4.80;;
43529;SDS011;55654;50.966;6.878;2023-05-07T07:00:28;8.68;;;3.00;;
43529;SDS011;55654;50.966;6.878;2023-05-07T07:02:54;7.78;;;2.90;;
43529;SDS011;55654;50.966;6.878;2023-05-07T07:05:20;4.60;;;2.28;;
43529;SDS011;55654;50.966;6.878;2023-05-07T07:07:46;4.03;;;2.10;;
43529;SDS011;55654;50.966;6.878;2023-05-07T07:10:21;4.95;;;2.70;;
43529;SDS011;55654;50.966;6.878;2023-05-07T07:12:47;3.45;;;2.45;;
43529;SDS011;55654;50.966;6.878;2023-05-07T07:15:13;4.57;;;2.45;;
43529;SDS011;55654;50.966;6.878;2023-05-07T07:17:40;5.53;;;2.08;;
43529;SDS011;55654;50.966;6.878;2023-05-07T07:20:06;5.55;;;3.40;;
43529;SDS011;55654;50.966;6.878;2023-05-07T07:22:32;4.53;;;3.63;;
43529;SDS011;55654;50.966;6.878;2023-05-07T07:24:58;6.63;;;4.00;;
43529;SDS011;55654;50.966;6.878;2023-05-07T07:27:24;6.40;;;2.55;;
43529;SDS011;55654;50.966;6.878;2023-05-07T07:29:50;3.55;;;2.20;;
43529;SDS011;55654;50.966;6.878;2023-05-07T07:32:16;4.68;;;2.03;;
43529;SDS011;55654;50.966;6.878;2023-05-07T07:34:42;3.75;;;2.15;;
43529;SDS011;55654;50.966;6.878;2023-05-07T07:37:11;4.80;;;3.03;;
43529;SDS011;55654;50.966;6.878;2023-05-07T07:39:37;4.10;;;2.40;;
43529;SDS011;55654;50.966;6.878;2023-05-07T07:42:03;5.30;;;1.70;;
43529;SDS011;55654;50.966;6.878;2023-05-07T07:44:29;5.10;;;2.80;;
43529;SDS011;55654;50.966;6.878;2023-05-07T07:46:55;7.43;;;2.10;;
43529;SDS011;55654;50.966;6.878;2023-05-07T07:49:21;4.07;;;2.83;;
43529;SDS011;55654;50.966;6.878;2023-05-07T07:51:47;2.92;;;2.22;;
43529;SDS011;55654;50.966;6.878;2023-05-07T07:54:13;2.65;;;1.77;;
43529;SDS011;55654;50.966;6.878;2023-05-07T07:56:39;6.65;;;1.70;;
43529;SDS011;55654;50.966;6.878;2023-05-07T07:59:05;3.80;;;1.80;;
43529;SDS011;55654;50.966;6.878;2023-05-07T08:01:31;3.95;;;2.10;;
43529;SDS011;55654;50.966;6.878;2023-05-07T08:03:57;4.45;;;2.88;;
43529;SDS011;55654;50.966;6.878;2023-05-07T08:06:24;4.75;;;2.40;;
43529;SDS011;55654;50.966;6.878;2023-05-07T08:08:50;4.78;;;2.17;;
43529;SDS011;55654;50.966;6.878;2023-05-07T08:11:17;5.82;;;2.55;;
43529;SDS011;55654;50.966;6.878;2023-05-07T08:13:43;5.00;;;2.47;;
43529;SDS011;55654;50.966;6.878;2023-05-07T08:16:10;4.30;;;2.17;;
43529;SDS011;55654;50.966;6.878;2023-05-07T08:18:36;6.93;;;3.58;;
43529;SDS011;55654;50.966;6.878;2023-05-07T08:21:02;7.00;;;2.33;;
43529;SDS011;55654;50.966;6.878;2023-05-07T08:23:28;3.58;;;1.88;;
43529;SDS011;55654;50.966;6.878;2023-05-07T08:25:54;5.20;;;3.47;;
43529;SDS011;55654;50.966;6.878;2023-05-07T08:28:20;3.50;;;2.15;;
43529;SDS011;55654;50.966;6.878;2023-05-07T08:30:46;4.05;;;2.13;;
43529;SDS011;55654;50.966;6.878;2023-05-07T08:33:12;4.43;;;3.08;;
43529;SDS011;55654;50.966;6.878;2023-05-07T08:35:38;5.78;;;2.53;;
43529;SDS011;55654;50.966;6.878;2023-05-07T08:38:04;5.32;;;2.22;;
43529;SDS011;55654;50.966;6.878;2023-05-07T08:40:31;4.00;;;1.75;;
43529;SDS011;55654;50.966;6.878;2023-05-07T08:42:59;3.67;;;2.55;;
43529;SDS011;55654;50.966;6.878;2023-05-07T08:45:26;5.47;;;2.28;;
43529;SDS011;55654;50.966;6.878;2023-05-07T08:47:55;2.90;;;2.10;;
43529;SDS011;55654;50.966;6.878;2023-05-07T08:50:22;3.15;;;2.15;;
43529;SDS011;55654;50.966;6.878;2023-05-07T08:52:48;6.05;;;1.90;;
43529;SDS011;55654;50.966;6.878;2023-05-07T08:55:14;3.88;;;1.92;;
43529;SDS011;55654;50.966;6.878;2023-05-07T08:57:40;3.38;;;2.40;;
43529;SDS011;55654;50.966;6.878;2023-05-07T09:00:07;5.70;;;3.00;;
43529;SDS011;55654;50.966;6.878;2023-05-07T09:02:34;2.47;;;1.75;;
43529;SDS011;55654;50.966;6.878;2023-05-07T09:05:01;5.47;;;1.65;;
43529;SDS011;55654;50.966;6.878;2023-05-07T09:07:27;3.30;;;1.77;;
43529;SDS011;55654;50.966;6.878;2023-05-07T09:09:53;3.50;;;2.20;;
43529;SDS011;55654;50.966;6.878;2023-05-07T09:12:22;4.10;;;1.60;;
43529;SDS011;55654;50.966;6.878;2023-05-07T09:14:49;6.78;;;2.22;;
43529;SDS011;55654;50.966;6.878;2023-05-07T09:17:15;2.30;;;1.63;;
43529;SDS011;55654;50.966;6.878;2023-05-07T09:19:42;4.50;;;2.60;;
43529;SDS011;55654;50.966;6.878;2023-05-07T09:22:10;3.42;;;1.60;;
43529;SDS011;55654;50.966;6.878;2023-05-07T09:24:36;3.00;;;1.58;;
43529;SDS011;55654;50.966;6.878;2023-05-07T09:27:06;5.25;;;2.00;;
43529;SDS011;55654;50.966;6.878;2023-05-07T09:29:33;4.07;;;1.92;;
43529;SDS011;55654;50.966;6.878;2023-05-07T09:32:06;4.00;;;1.80;;
43529;SDS011;55654;50.966;6.878;2023-05-07T09:34:32;2.33;;;1.80;;
43529;SDS011;55654;50.966;6.878;2023-05-07T09:37:04;3.72;;;2.00;;
43529;SDS011;55654;50.966;6.878;2023-05-07T09:41:56;3.47;;;2.00;;
43529;SDS011;55654;50.966;6.878;2023-05-07T09:44:23;6.35;;;2.33;;
43529;SDS011;55654;50.966;6.878;2023-05-07T09:46:53;2.60;;;1.70;;
43529;SDS011;55654;50.966;6.878;2023-05-07T09:49:21;5.45;;;2.10;;
43529;SDS011;55654;50.966;6.878;2023-05-07T09:51:48;2.78;;;2.22;;
43529;SDS011;55654;50.966;6.878;2023-05-07T09:54:17;5.35;;;2.22;;
43529;SDS011;55654;50.966;6.878;2023-05-07T09:56:46;4.30;;;1.88;;
43529;SDS011;55654;50.966;6.878;2023-05-07T09:59:14;2.35;;;1.38;;
43529;SDS011;55654;50.966;6.878;2023-05-07T10:01:41;2.28;;;1.50;;
43529;SDS011;55654;50.966;6.878;2023-05-07T10:04:07;4.93;;;1.92;;
43529;SDS011;55654;50.966;6.878;2023-05-07T10:06:34;2.55;;;1.73;;
43529;SDS011;55654;50.966;6.878;2023-05-07T10:09:00;3.67;;;1.92;;
43529;SDS011;55654;50.966;6.878;2023-05-07T10:11:27;4.63;;;2.35;;
43529;SDS011;55654;50.966;6.878;2023-05-07T10:13:53;4.95;;;2.30;;
43529;SDS011;55654;50.966;6.878;2023-05-07T10:16:20;4.00;;;2.00;;
43529;SDS011;55654;50.966;6.878;2023-05-07T10:18:46;2.72;;;2.00;;
43529;SDS011;55654;50.966;6.878;2023-05-07T10:21:17;2.28;;;1.75;;
43529;SDS011;55654;50.966;6.878;2023-05-07T10:23:50;2.72;;;2.42;;
43529;SDS011;55654;50.966;6.878;2023-05-07T10:26:17;8.23;;;1.63;;
43529;SDS011;55654;50.966;6.878;2023-05-07T10:28:46;34.67;;;5.22;;
43529;SDS011;55654;50.966;6.878;2023-05-07T10:31:29;3.80;;;1.77;;
43529;SDS011;55654;50.966;6.878;2023-05-07T10:33:57;2.97;;;1.60;;
43529;SDS011;55654;50.966;6.878;2023-05-07T10:36:24;2.55;;;1.52;;
43529;SDS011;55654;50.966;6.878;2023-05-07T10:38:51;2.60;;;1.83;;
43529;SDS011;55654;50.966;6.878;2023-05-07T10:41:18;5.25;;;2.15;;
43529;SDS011;55654;50.966;6.878;2023-05-07T10:43:44;2.97;;;2.20;;
43529;SDS011;55654;50.966;6.878;2023-05-07T10:46:20;2.20;;;1.48;;
43529;SDS011;55654;50.966;6.878;2023-05-07T10:51:28;4.85;;;1.58;;
43529;SDS011;55654;50.966;6.878;2023-05-07T10:54:18;4.63;;;1.40;;
43529;SDS011;55654;50.966;6.878;2023-05-07T10:56:43;5.97;;;1.95;;
43529;SDS011;55654;50.966;6.878;2023-05-07T11:02:02;11.63;;;1.75;;
43529;SDS011;55654;50.966;6.878;2023-05-07T11:04:29;6.80;;;2.20;;
43529;SDS011;55654;50.966;6.878;2023-05-07T11:13:03;2.97;;;1.58;;
43529;SDS011;55654;50.966;6.878;2023-05-07T11:15:14;3.85;;;1.33;;
43529;SDS011;55654;50.966;6.878;2023-05-07T11:17:56;2.30;;;1.10;;
43529;SDS011;55654;50.966;6.878;2023-05-07T11:23:08;3.15;;;1.10;;
43529;SDS011;55654;50.966;6.878;2023-05-07T11:25:37;1.77;;;1.15;;
43529;SDS011;55654;50.966;6.878;2023-05-07T11:30:35;3.78;;;1.63;;
43529;SDS011;55654;50.966;6.878;2023-05-07T11:33:01;2.45;;;1.23;;
43529;SDS011;55654;50.966;6.878;2023-05-07T11:35:27;1.92;;;1.40;;
43529;SDS011;55654;50.966;6.878;2023-05-07T11:37:57;2.30;;;1.30;;
43529;SDS011;55654;50.966;6.878;2023-05-07T11:40:24;3.20;;;1.58;;
43529;SDS011;55654;50.966;6.878;2023-05-07T11:42:50;2.05;;;1.13;;
43529;SDS011;55654;50.966;6.878;2023-05-07T11:45:22;1.92;;;1.25;;
43529;SDS011;55654;50.966;6.878;2023-05-07T11:47:49;2.70;;;1.67;;
43529;SDS011;55654;50.966;6.878;2023-05-07T11:50:15;2.70;;;1.27;;
43529;SDS011;55654;50.966;6.878;2023-05-07T11:52:49;2.20;;;1.10;;
43529;SDS011;55654;50.966;6.878;2023-05-07T11:55:17;2.88;;;1.27;;
43529;SDS011;55654;50.966;6.878;2023-05-07T11:57:44;4.80;;;1.48;;
43529;SDS011;55654;50.966;6.878;2023-05-07T12:00:10;2.83;;;1.40;;
43529;SDS011;55654;50.966;6.878;2023-05-07T12:02:36;7.97;;;1.60;;
43529;SDS011;55654;50.966;6.878;2023-05-07T12:05:03;4.97;;;1.45;;
43529;SDS011;55654;50.966;6.878;2023-05-07T12:07:29;3.55;;;1.13;;
43529;SDS011;55654;50.966;6.878;2023-05-07T12:09:56;4.35;;;1.58;;
43529;SDS011;55654;50.966;6.878;2023-05-07T12:12:22;4.25;;;1.80;;
43529;SDS011;55654;50.966;6.878;2023-05-07T12:14:48;5.53;;;1.92;;
43529;SDS011;55654;50.966;6.878;2023-05-07T12:17:15;2.28;;;1.67;;
43529;SDS011;55654;50.966;6.878;2023-05-07T12:19:42;2.85;;;2.13;;
43529;SDS011;55654;50.966;6.878;2023-05-07T12:22:08;4.03;;;1.63;;
43529;SDS011;55654;50.966;6.878;2023-05-07T12:24:47;4.57;;;2.75;;
43529;SDS011;55654;50.966;6.878;2023-05-07T12:27:14;5.10;;;1.77;;
43529;SDS011;55654;50.966;6.878;2023-05-07T12:29:47;3.97;;;1.67;;
43529;SDS011;55654;50.966;6.878;2023-05-07T12:32:14;2.63;;;1.65;;
43529;SDS011;55654;50.966;6.878;2023-05-07T12:34:40;2.70;;;1.40;;
43529;SDS011;55654;50.966;6.878;2023-05-07T12:37:06;2.10;;;1.20;;
43529;SDS011;55654;50.966;6.878;2023-05-07T12:39:33;2.88;;;1.48;;
43529;SDS011;55654;50.966;6.878;2023-05-07T12:42:03;2.03;;;1.10;;
43529;SDS011;55654;50.966;6.878;2023-05-07T12:44:32;3.10;;;0.93;;
43529;SDS011;55654;50.966;6.878;2023-05-07T12:47:00;2.80;;;1.40;;
43529;SDS011;55654;50.966;6.878;2023-05-07T12:49:27;2.45;;;0.95;;
43529;SDS011;55654;50.966;6.878;2023-05-07T12:51:53;2.83;;;1.60;;
43529;SDS011;55654;50.966;6.878;2023-05-07T12:57:02;3.28;;;1.45;;
43529;SDS011;55654;50.966;6.878;2023-05-07T12:59:38;3.03;;;1.45;;
43529;SDS011;55654;50.966;6.878;2023-05-07T13:02:04;1.88;;;1.13;;
43529;SDS011;55654;50.966;6.878;2023-05-07T13:04:33;3.03;;;1.55;;
43529;SDS011;55654;50.966;6.878;2023-05-07T13:07:02;3.85;;;1.10;;
43529;SDS011;55654;50.966;6.878;2023-05-07T13:09:28;3.28;;;1.48;;
43529;SDS011;55654;50.966;6.878;2023-05-07T13:11:54;4.55;;;1.23;;
43529;SDS011;55654;50.966;6.878;2023-05-07T13:14:20;2.58;;;1.50;;
43529;SDS011;55654;50.966;6.878;2023-05-07T13:16:47;3.55;;;1.50;;
43529;SDS011;55654;50.966;6.878;2023-05-07T13:19:13;2.15;;;1.75;;
43529;SDS011;55654;50.966;6.878;2023-05-07T13:21:39;2.78;;;1.70;;
43529;SDS011;55654;50.966;6.878;2023-05-07T13:24:05;4.10;;;1.88;;
43529;SDS011;55654;50.966;6.878;2023-05-07T13:26:31;2.72;;;1.50;;
43529;SDS011;55654;50.966;6.878;2023-05-07T13:29:00;5.15;;;1.90;;
43529;SDS011;55654;50.966;6.878;2023-05-07T13:31:28;2.83;;;1.58;;
43529;SDS011;55654;50.966;6.878;2023-05-07T13:33:54;2.83;;;1.73;;
43529;SDS011;55654;50.966;6.878;2023-05-07T13:36:21;3.47;;;1.60;;
43529;SDS011;55654;50.966;6.878;2023-05-07T13:38:47;4.53;;;2.28;;
43529;SDS011;55654;50.966;6.878;2023-05-07T13:41:13;5.88;;;1.77;;
43529;SDS011;55654;50.966;6.878;2023-05-07T13:43:39;2.08;;;1.60;;
43529;SDS011;55654;50.966;6.878;2023-05-07T13:46:05;2.95;;;1.23;;
43529;SDS011;55654;50.966;6.878;2023-05-07T13:48:31;3.38;;;1.42;;
43529;SDS011;55654;50.966;6.878;2023-05-07T13:50:57;2.25;;;1.40;;
43529;SDS011;55654;50.966;6.878;2023-05-07T13:53:23;3.67;;;1.60;;
43529;SDS011;55654;50.966;6.878;2023-05-07T13:55:49;5.25;;;1.58;;
43529;SDS011;55654;50.966;6.878;2023-05-07T13:58:15;1.85;;;1.15;;
43529;SDS011;55654;50.966;6.878;2023-05-07T14:00:41;1.95;;;1.50;;
43529;SDS011;55654;50.966;6.878;2023-05-07T14:03:07;2.63;;;1.35;;
43529;SDS011;55654;50.966;6.878;2023-05-07T14:05:36;2.53;;;1.60;;
43529;SDS011;55654;50.966;6.878;2023-05-07T14:08:02;4.50;;;1.58;;
43529;SDS011;55654;50.966;6.878;2023-05-07T14:10:29;4.55;;;1.77;;
43529;SDS011;55654;50.966;6.878;2023-05-07T14:12:56;4.28;;;2.03;;
43529;SDS011;55654;50.966;6.878;2023-05-07T14:15:22;2.25;;;1.60;;
43529;SDS011;55654;50.966;6.878;2023-05-07T14:17:48;3.47;;;1.85;;
43529;SDS011;55654;50.966;6.878;2023-05-07T14:20:18;11.05;;;2.10;;
43529;SDS011;55654;50.966;6.878;2023-05-07T14:22:44;3.55;;;2.20;;
43529;SDS011;55654;50.966;6.878;2023-05-07T14:25:10;4.88;;;2.50;;
43529;SDS011;55654;50.966;6.878;2023-05-07T14:27:36;5.15;;;1.90;;
43529;SDS011;55654;50.966;6.878;2023-05-07T14:30:02;4.47;;;2.40;;
43529;SDS011;55654;50.966;6.878;2023-05-07T14:32:28;7.05;;;2.42;;
43529;SDS011;55654;50.966;6.878;2023-05-07T14:34:54;1.95;;;1.38;;
43529;SDS011;55654;50.966;6.878;2023-05-07T14:37:20;5.53;;;2.15;;
43529;SDS011;55654;50.966;6.878;2023-05-07T14:39:46;3.72;;;2.35;;
43529;SDS011;55654;50.966;6.878;2023-05-07T14:42:13;4.70;;;2.75;;
43529;SDS011;55654;50.966;6.878;2023-05-07T14:44:39;8.68;;;2.90;;
43529;SDS011;55654;50.966;6.878;2023-05-07T14:47:06;5.20;;;2.20;;
43529;SDS011;55654;50.966;6.878;2023-05-07T14:49:33;5.93;;;2.30;;
43529;SDS011;55654;50.966;6.878;2023-05-07T14:51:59;3.92;;;2.30;;
43529;SDS011;55654;50.966;6.878;2023-05-07T14:54:25;5.82;;;2.60;;
43529;SDS011;55654;50.966;6.878;2023-05-07T14:56:51;3.15;;;1.98;;
43529;SDS011;55654;50.966;6.878;2023-05-07T14:59:18;3.58;;;1.60;;
43529;SDS011;55654;50.966;6.878;2023-05-07T15:01:46;3.58;;;0.80;;